createdAt,value
2022-12-22T00:00:18.228Z,8.5
2022-12-22T00:05:18.438Z,8.5
2022-12-22T00:10:18.403Z,8.5
2022-12-22T00:15:18.469Z,8.5
2022-12-22T00:20:18.857Z,8.5
2022-12-22T00:25:18.508Z,8.4
2022-12-22T00:30:18.397Z,8.4
2022-12-22T00:35:18.530Z,8.4
2022-12-22T00:40:18.395Z,8.4
2022-12-22T00:45:18.421Z,8.4
2022-12-22T00:50:18.577Z,8.4
2022-12-22T00:55:18.815Z,8.4
2022-12-22T01:00:18.669Z,8.4
2022-12-22T01:05:18.857Z,8.4
2022-12-22T01:10:18.688Z,8.4
2022-12-22T01:15:18.899Z,8.4
2022-12-22T01:20:18.752Z,8.4
2022-12-22T01:25:18.843Z,8.4
2022-12-22T01:30:18.770Z,8.4
2022-12-22T01:35:18.879Z,8.4
2022-12-22T01:40:18.855Z,8.4
2022-12-22T01:45:18.976Z,8.3
2022-12-22T01:50:18.937Z,8.3
2022-12-22T01:55:19.184Z,8.3
2022-12-22T02:00:18.940Z,8.3
2022-12-22T02:05:18.966Z,8.3
2022-12-22T02:10:19.291Z,8.3
2022-12-22T02:15:18.953Z,8.3
2022-12-22T02:20:18.934Z,8.3
2022-12-22T02:25:19.139Z,8.3
2022-12-22T02:30:18.942Z,8.3
2022-12-22T02:35:19.075Z,8.3
2022-12-22T02:40:18.972Z,8.3
2022-12-22T02:45:18.997Z,8.3
2022-12-22T02:50:18.975Z,8.3
2022-12-22T02:55:19.029Z,8.3
2022-12-22T03:00:18.989Z,8.3
2022-12-22T03:05:19.027Z,8.3
2022-12-22T03:10:19.120Z,8.3
2022-12-22T03:15:19.077Z,8.3
2022-12-22T03:20:19.070Z,8.3
2022-12-22T03:25:19.290Z,8.3
2022-12-22T03:30:19.315Z,8.3
2022-12-22T03:35:19.354Z,8.3
2022-12-22T03:40:19.296Z,8.3
2022-12-22T03:45:19.434Z,8.3
2022-12-22T03:50:19.297Z,8.3
2022-12-22T03:55:19.465Z,8.3
2022-12-22T04:00:19.487Z,8.3
2022-12-22T04:05:19.353Z,8.3
2022-12-22T04:10:19.361Z,8.3
2022-12-22T04:15:19.500Z,8.3
2022-12-22T04:20:19.349Z,8.3
2022-12-22T04:25:19.507Z,8.3
2022-12-22T04:30:19.523Z,8.3
2022-12-22T04:35:19.547Z,8.3
2022-12-22T04:40:19.526Z,8.3
2022-12-22T04:45:19.536Z,8.3
2022-12-22T04:50:19.528Z,8.3
2022-12-22T04:55:19.567Z,8.3
2022-12-22T05:00:19.523Z,8.3
2022-12-22T05:05:19.801Z,8.3
2022-12-22T05:10:19.801Z,8.3
2022-12-22T05:15:19.825Z,8.3
2022-12-22T05:20:19.796Z,8.3
2022-12-22T05:25:20.084Z,8.3
2022-12-22T05:30:19.777Z,8.3
2022-12-22T05:35:19.820Z,8.3
2022-12-22T05:40:19.812Z,8.3
2022-12-22T05:45:19.846Z,8.3
2022-12-22T05:50:19.818Z,8.3
2022-12-22T05:55:19.849Z,8.3
2022-12-22T06:00:20.091Z,8.3
2022-12-22T06:05:19.823Z,8.4
2022-12-22T06:10:19.823Z,8.4
2022-12-22T06:15:19.864Z,8.4
2022-12-22T06:20:19.813Z,8.4
2022-12-22T06:25:20.017Z,8.4
2022-12-22T06:30:19.823Z,8.4
2022-12-22T06:35:19.842Z,8.4
2022-12-22T06:40:19.826Z,8.4
2022-12-22T06:45:20.080Z,8.4
2022-12-22T06:50:20.152Z,8.4
2022-12-22T06:55:20.275Z,8.4
2022-12-22T07:00:20.180Z,8.4
2022-12-22T07:05:19.823Z,8.4
2022-12-22T07:10:19.869Z,8.4
2022-12-22T07:15:19.887Z,8.4
2022-12-22T07:20:19.874Z,8.4
2022-12-22T07:25:20.139Z,8.4
2022-12-22T07:30:20.212Z,8.4
2022-12-22T07:35:19.897Z,8.4
2022-12-22T07:40:20.110Z,8.4
2022-12-22T07:45:20.088Z,8.4
2022-12-22T07:50:19.863Z,8.5
2022-12-22T07:55:20.188Z,8.5
2022-12-22T08:00:20.667Z,8.5
2022-12-22T08:05:19.995Z,8.5
2022-12-22T08:10:20.646Z,8.5
2022-12-22T08:15:20.441Z,8.5
2022-12-22T08:20:20.757Z,8.5
2022-12-22T08:25:20.716Z,8.5
2022-12-22T08:30:20.727Z,8.5
2022-12-22T08:35:20.864Z,8.6
2022-12-22T08:44:28.730Z,8.6
2022-12-22T08:49:28.738Z,8.6
2022-12-22T08:54:28.713Z,8.6
2022-12-22T08:59:28.723Z,8.6
2022-12-22T09:04:28.760Z,8.6
2022-12-22T09:09:28.664Z,8.6
2022-12-22T09:14:28.657Z,8.6
2022-12-22T09:19:28.642Z,8.6
2022-12-22T09:24:28.623Z,8.7
2022-12-22T09:29:28.662Z,8.7
2022-12-22T09:34:28.649Z,8.7
2022-12-22T09:39:29.534Z,8.8
2022-12-22T09:44:28.611Z,8.8
2022-12-22T09:49:28.637Z,8.8
2022-12-22T09:54:28.656Z,8.8
2022-12-22T09:59:28.656Z,8.8
2022-12-22T10:04:28.630Z,8.8
2022-12-22T10:09:53.489Z,8.8
2022-12-22T10:14:28.658Z,8.8
2022-12-22T10:19:28.651Z,8.8
2022-12-22T10:24:28.640Z,8.9
2022-12-22T10:29:28.635Z,8.9
2022-12-22T10:34:28.644Z,8.9
2022-12-22T10:39:28.758Z,8.9
2022-12-22T10:44:28.650Z,8.9
2022-12-22T10:49:28.657Z,8.9
2022-12-22T10:54:28.648Z,9
2022-12-22T10:59:28.659Z,9
2022-12-22T11:04:28.620Z,9
2022-12-22T11:09:34.092Z,9
2022-12-22T11:14:28.645Z,9.1
2022-12-22T11:19:28.639Z,9.1
2022-12-22T11:24:28.824Z,9.1
2022-12-22T11:29:28.786Z,9.1
2022-12-22T11:34:28.733Z,9.1
2022-12-22T11:39:28.611Z,9.1
2022-12-22T11:44:28.671Z,9.1
2022-12-22T11:49:28.643Z,9.2
2022-12-22T11:54:28.643Z,9.2
2022-12-22T11:59:28.624Z,9.2
2022-12-22T12:04:28.699Z,9.3
2022-12-22T12:09:28.625Z,9.3
2022-12-22T12:14:28.649Z,9.3
2022-12-22T12:19:28.933Z,9.3
2022-12-22T12:24:28.603Z,9.3
2022-12-22T12:29:28.614Z,9.3
2022-12-22T12:34:28.650Z,9.4
2022-12-22T12:39:28.635Z,9.4
2022-12-22T12:44:28.612Z,9.4
2022-12-22T12:49:28.671Z,9.4
2022-12-22T12:54:28.641Z,9.4
2022-12-22T12:59:28.671Z,9.4
2022-12-22T13:04:28.768Z,9.5
2022-12-22T13:09:53.852Z,9.5
2022-12-22T13:14:28.749Z,9.5
2022-12-22T13:19:28.622Z,9.5
2022-12-22T13:24:29.400Z,9.6
2022-12-22T13:29:28.620Z,9.6
2022-12-22T13:34:28.636Z,9.6
2022-12-22T13:39:28.658Z,9.6
2022-12-22T13:44:28.661Z,9.6
2022-12-22T13:49:58.931Z,9.6
2022-12-22T13:54:28.705Z,9.6
2022-12-22T13:59:28.686Z,9.6
2022-12-22T14:04:28.799Z,9.6
2022-12-22T14:09:28.651Z,9.6
2022-12-22T14:14:28.679Z,9.7
2022-12-22T14:19:28.640Z,9.7
2022-12-22T14:24:31.017Z,9.7
2022-12-22T14:29:28.627Z,9.7
2022-12-22T14:34:28.671Z,9.7
2022-12-22T14:39:28.643Z,9.7
2022-12-22T14:44:28.627Z,9.7
2022-12-22T14:49:28.666Z,9.7
2022-12-22T14:54:28.670Z,9.7
2022-12-22T14:59:28.617Z,9.7
2022-12-22T15:04:28.622Z,9.7
2022-12-22T15:10:04.063Z,9.7
2022-12-22T15:14:32.106Z,9.7
2022-12-22T15:19:28.676Z,9.7
2022-12-22T15:24:28.622Z,9.7
2022-12-22T15:29:28.640Z,9.8
2022-12-22T15:34:28.651Z,9.8
2022-12-22T15:39:28.641Z,9.8
2022-12-22T15:44:32.171Z,9.8
2022-12-22T15:49:28.658Z,9.8
2022-12-22T15:54:28.670Z,9.8
2022-12-22T15:59:28.733Z,9.8
2022-12-22T16:04:28.703Z,9.8
2022-12-22T16:09:28.657Z,9.8
2022-12-22T16:14:31.233Z,9.8
2022-12-22T16:19:28.629Z,9.8
2022-12-22T16:24:28.645Z,9.8
2022-12-22T16:29:28.639Z,9.8
2022-12-22T16:34:28.640Z,9.8
2022-12-22T16:39:28.632Z,9.7
2022-12-22T16:44:28.625Z,9.7
2022-12-22T16:49:28.686Z,9.7
2022-12-22T16:54:28.677Z,9.7
2022-12-22T16:59:28.659Z,9.7
2022-12-22T17:04:28.621Z,9.7
2022-12-22T17:09:28.615Z,9.6
2022-12-22T17:14:28.675Z,9.6
2022-12-22T17:19:28.630Z,9.6
2022-12-22T17:24:29.015Z,9.6
2022-12-22T17:29:28.671Z,9.6
2022-12-22T17:34:28.638Z,9.5
2022-12-22T17:39:28.658Z,9.5
2022-12-22T17:44:28.706Z,9.4
2022-12-22T17:49:28.654Z,9.4
2022-12-22T17:54:28.660Z,9.4
2022-12-22T17:59:28.642Z,9.4
2022-12-22T18:04:28.620Z,9.4
2022-12-22T18:09:28.670Z,9.3
2022-12-22T18:14:28.644Z,9.3
2022-12-22T18:19:28.621Z,9.3
2022-12-22T18:24:28.632Z,9.3
2022-12-22T18:29:28.680Z,9.2
2022-12-22T18:34:28.651Z,9.2
2022-12-22T18:39:28.660Z,9.1
2022-12-22T18:44:28.636Z,9.1
2022-12-22T18:49:28.671Z,9.1
2022-12-22T18:54:28.673Z,9.1
2022-12-22T18:59:28.661Z,9
2022-12-22T19:04:28.636Z,9
2022-12-22T19:09:28.650Z,8.9
2022-12-22T19:14:28.675Z,8.9
2022-12-22T19:19:28.667Z,8.9
2022-12-22T19:24:28.637Z,8.9
2022-12-22T19:29:28.642Z,8.9
2022-12-22T19:34:28.724Z,8.8
2022-12-22T19:39:28.655Z,8.8
2022-12-22T19:44:28.657Z,8.8
2022-12-22T19:49:28.661Z,8.8
2022-12-22T19:54:28.736Z,8.7
2022-12-22T19:59:34.120Z,8.7
2022-12-22T20:04:28.648Z,8.6
2022-12-22T20:09:28.654Z,8.6
2022-12-22T20:14:28.781Z,8.6
2022-12-22T20:19:28.652Z,8.6
2022-12-22T20:24:28.653Z,8.5
2022-12-22T20:29:28.650Z,8.5
2022-12-22T20:34:28.691Z,8.4
2022-12-22T20:39:28.655Z,8.4
2022-12-22T20:44:28.633Z,8.4
2022-12-22T20:49:28.658Z,8.4
2022-12-22T20:54:28.698Z,8.3
2022-12-22T20:59:28.644Z,8.3
2022-12-22T21:04:28.629Z,8.3
2022-12-22T21:09:28.644Z,8.3
2022-12-22T21:14:28.650Z,8.2
2022-12-22T21:19:28.667Z,8.2
2022-12-22T21:24:28.646Z,8.2
2022-12-22T21:29:28.649Z,8.1
2022-12-22T21:34:28.657Z,8.1
2022-12-22T21:39:28.663Z,8.1
2022-12-22T21:44:28.634Z,8.1
2022-12-22T21:49:28.669Z,8.1
2022-12-22T21:54:28.661Z,8.1
2022-12-22T21:59:28.673Z,8
2022-12-22T22:04:28.632Z,8
2022-12-22T22:09:28.661Z,8
2022-12-22T22:14:28.768Z,8
2022-12-22T22:19:28.644Z,8
2022-12-22T22:24:28.629Z,8
2022-12-22T22:29:28.640Z,7.9
2022-12-22T22:34:28.657Z,7.9
2022-12-22T22:39:28.674Z,7.9
2022-12-22T22:44:28.644Z,7.9
2022-12-22T22:49:29.076Z,7.9
2022-12-22T22:54:28.694Z,7.9
2022-12-22T22:59:28.651Z,7.9
2022-12-22T23:04:28.741Z,7.9
2022-12-22T23:09:28.662Z,7.9
2022-12-22T23:14:28.686Z,7.9
2022-12-22T23:19:28.683Z,7.9
2022-12-22T23:24:28.645Z,7.9
2022-12-22T23:29:28.644Z,7.9
2022-12-22T23:34:28.672Z,7.9
2022-12-22T23:39:28.682Z,7.9
2022-12-22T23:44:28.646Z,7.9
2022-12-22T23:49:28.676Z,7.9
2022-12-22T23:54:28.676Z,7.9
2022-12-22T23:59:28.678Z,8
